Time;durP1;ratioP1;P1;durP2;ratioP2;P2;SDS_P1;SDS_P2;PMS_P1;PMS_P2;Temp;Humidity;BMP_temperature;BMP_pressure;BME280_temperature;BME280_humidity;BME280_pressure;Samples;Min_cycle;Max_cycle;Signal;HPM_P1;HPM_P2
2023/06/07 00:00:27;;;;;;;6.07;2.70;;;;;;;21.32;41.35;100676.47;5036418;28;20298;-74
2023/06/07 00:02:56;;;;;;;6.87;2.93;;;;;;;21.23;41.69;100683.13;5035388;28;20638;-73
2023/06/07 00:05:26;;;;;;;9.60;2.87;;;;;;;21.24;41.15;100684.78;5036642;28;20232;-73
2023/06/07 00:07:54;;;;;;;6.03;2.60;;;;;;;21.23;41.31;100685.84;5036996;28;20244;-74
2023/06/07 00:10:21;;;;;;;8.30;3.10;;;;;;;21.21;41.29;100685.22;5036300;28;20258;-74
2023/06/07 00:12:49;;;;;;;5.27;2.80;;;;;;;21.15;41.83;100677.94;5036428;28;20212;-72
2023/06/07 00:15:17;;;;;;;5.70;2.93;;;;;;;21.06;41.83;100687.31;5037890;28;20326;-73
2023/06/07 00:17:45;;;;;;;4.53;2.60;;;;;;;21.09;41.88;100675.28;5033810;28;20266;-74
2023/06/07 00:20:14;;;;;;;6.07;2.67;;;;;;;21.11;41.62;100684.78;5038225;28;20224;-75
2023/06/07 00:22:43;;;;;;;5.07;2.60;;;;;;;21.07;42.01;100686.28;5038462;28;20271;-74
2023/06/07 00:25:11;;;;;;;5.50;2.90;;;;;;;21.06;41.65;100683.78;5036525;28;20228;-76
2023/06/07 00:27:39;;;;;;;6.20;2.80;;;;;;;21.10;41.63;100675.06;5035784;28;20224;-73
2023/06/07 00:30:08;;;;;;;3.83;2.63;;;;;;;21.09;41.68;100681.50;5037048;28;20234;-73
2023/06/07 00:32:36;;;;;;;6.23;2.70;;;;;;;21.04;41.95;100684.00;5037386;28;20216;-74
2023/06/07 00:35:07;;;;;;;6.57;2.80;;;;;;;21.05;41.69;100685.66;5034329;28;20570;-74
2023/06/07 00:37:34;;;;;;;5.97;2.70;;;;;;;21.03;41.72;100683.16;5037091;28;20197;-73
2023/06/07 00:40:04;;;;;;;6.07;3.20;;;;;;;21.02;41.97;100680.69;5035321;28;20215;-74
2023/06/07 00:42:33;;;;;;;4.33;2.87;;;;;;;21.01;41.66;100679.88;5034950;28;20700;-74
2023/06/07 00:45:01;;;;;;;7.03;2.90;;;;;;;21.04;41.87;100681.28;5036378;28;21055;-75
2023/06/07 00:47:29;;;;;;;5.00;2.90;;;;;;;21.01;41.73;100681.72;5032660;28;20270;-74
2023/06/07 00:49:57;;;;;;;7.43;2.77;;;;;;;21.02;41.63;100670.72;5035027;28;20211;-74
2023/06/07 00:52:25;;;;;;;8.77;3.10;;;;;;;21.01;41.84;100668.25;5037287;28;20243;-75
2023/06/07 00:54:53;;;;;;;8.80;3.10;;;;;;;20.99;41.60;100675.72;5034303;28;20236;-73
2023/06/07 00:57:23;;;;;;;6.13;2.80;;;;;;;20.93;42.16;100674.66;5036481;28;20212;-75
2023/06/07 00:59:50;;;;;;;9.90;2.67;;;;;;;20.90;42.15;100667.03;5034507;28;20204;-74
2023/06/07 01:02:18;;;;;;;4.57;2.97;;;;;;;20.89;42.06;100667.22;5033748;28;20201;-74
2023/06/07 01:04:49;;;;;;;7.50;2.90;;;;;;;20.88;42.09;100674.50;5047219;28;20292;-74
2023/06/07 01:07:24;;;;;;;6.50;2.63;;;;;;;20.85;41.98;100669.50;5044683;28;20212;-73
2023/06/07 01:09:53;;;;;;;4.83;3.03;;;;;;;20.82;42.33;100674.50;5042221;28;20307;-74
2023/06/07 01:12:23;;;;;;;4.53;2.60;;;;;;;20.81;42.10;100667.47;5045507;28;20216;-73
2023/06/07 01:14:51;;;;;;;4.53;3.10;;;;;;;20.82;42.01;100669.94;5047649;28;20212;-74
2023/06/07 01:17:24;;;;;;;4.83;3.20;;;;;;;20.80;41.98;100665.78;5043126;28;20224;-75
2023/06/07 01:19:55;;;;;;;7.67;3.43;;;;;;;20.78;42.28;100660.63;5041672;28;20303;-74
2023/06/07 01:22:27;;;;;;;4.50;2.70;;;;;;;20.82;42.15;100669.13;5038440;28;20235;-75
2023/06/07 01:24:57;;;;;;;5.77;2.60;;;;;;;20.79;42.09;100653.34;5036487;28;20233;-74
2023/06/07 01:27:30;;;;;;;8.23;3.07;;;;;;;20.75;42.32;100663.75;5034812;28;20370;-75
2023/06/07 01:29:59;;;;;;;6.47;2.97;;;;;;;20.75;42.35;100662.91;5039189;28;20216;-75
2023/06/07 01:32:31;;;;;;;7.63;2.50;;;;;;;20.71;42.73;100664.34;5041207;28;20217;-74
2023/06/07 01:35:00;;;;;;;4.57;2.70;;;;;;;20.59;43.16;100659.59;5043683;28;20223;-74
2023/06/07 01:37:28;;;;;;;4.77;3.10;;;;;;;20.61;42.53;100651.31;5039952;28;20205;-74
2023/06/07 01:39:58;;;;;;;6.00;2.40;;;;;;;20.62;42.84;100648.41;5040553;28;21258;-74
2023/06/07 01:42:28;;;;;;;8.57;2.60;;;;;;;20.63;42.79;100652.78;5041426;28;20777;-74
2023/06/07 01:44:57;;;;;;;5.20;2.90;;;;;;;20.65;42.37;100645.31;5038894;28;20208;-74
2023/06/07 01:47:25;;;;;;;6.30;3.10;;;;;;;20.63;42.43;100644.69;5036535;28;20842;-76
2023/06/07 01:49:53;;;;;;;6.90;3.13;;;;;;;20.62;42.79;100643.03;5034070;28;20317;-74
2023/06/07 01:52:21;;;;;;;5.37;2.83;;;;;;;20.61;42.70;100649.44;5038567;28;20228;-75
2023/06/07 01:54:49;;;;;;;5.80;2.70;;;;;;;20.56;42.96;100643.88;5036991;28;20200;-74
2023/06/07 01:57:27;;;;;;;4.93;2.87;;;;;;;20.53;43.34;100636.19;5032622;28;20240;-74
2023/06/07 02:00:06;;;;;;;3.40;2.53;;;;;;;20.55;42.91;100638.69;5037208;28;20209;-74
2023/06/07 02:02:44;;;;;;;9.83;3.57;;;;;;;20.52;43.08;100637.22;5041155;28;20200;-75
2023/06/07 02:05:16;;;;;;;6.00;3.43;;;;;;;20.51;42.92;100645.50;5037048;28;20226;-73
2023/06/07 02:07:48;;;;;;;6.93;3.07;;;;;;;20.32;43.84;100639.06;5040252;28;20216;-73
2023/06/07 02:10:19;;;;;;;8.60;2.80;;;;;;;20.18;44.71;100640.94;5038638;28;20236;-74
2023/06/07 02:12:51;;;;;;;4.40;2.80;;;;;;;20.11;44.37;100639.28;5039577;28;20200;-74
2023/06/07 02:15:19;;;;;;;8.47;3.40;;;;;;;20.16;44.25;100636.78;5039199;28;20227;-74
2023/06/07 02:17:51;;;;;;;11.40;3.27;;;;;;;20.20;44.03;100640.75;5039600;28;20220;-74
2023/06/07 02:20:21;;;;;;;6.83;2.60;;;;;;;20.19;44.53;100636.38;5040913;28;20214;-74
2023/06/07 02:22:49;;;;;;;5.77;2.90;;;;;;;20.12;44.94;100640.94;5037544;28;20238;-75
2023/06/07 02:25:17;;;;;;;6.67;3.17;;;;;;;20.04;44.69;100641.97;5040246;28;20215;-74
2023/06/07 02:27:44;;;;;;;5.00;3.10;;;;;;;20.14;44.45;100645.06;5040754;28;20263;-75
2023/06/07 02:30:14;;;;;;;4.73;2.93;;;;;;;20.16;44.91;100639.47;5037824;28;20209;-74
2023/06/07 02:32:45;;;;;;;4.70;2.73;;;;;;;20.17;44.49;100641.97;5036726;28;21825;-75
2023/06/07 02:35:13;;;;;;;8.13;3.00;;;;;;;20.17;44.68;100638.44;5038851;28;20239;-75
2023/06/07 02:37:41;;;;;;;5.40;3.00;;;;;;;20.06;45.06;100639.06;5035829;28;20729;-75
2023/06/07 02:40:10;;;;;;;6.30;2.70;;;;;;;19.89;45.97;100639.47;5036764;28;20623;-74
2023/06/07 02:42:38;;;;;;;7.23;2.90;;;;;;;19.87;45.64;100643.41;5037930;28;20220;-74
2023/06/07 02:45:07;;;;;;;5.27;2.63;;;;;;;19.79;46.27;100644.41;5037272;28;20208;-75
2023/06/07 02:47:36;;;;;;;4.57;2.73;;;;;;;19.78;45.87;100641.94;5034888;28;20232;-73
2023/06/07 02:50:06;;;;;;;7.53;3.10;;;;;;;19.85;45.85;100632.84;5037504;28;20602;-74
2023/06/07 02:52:34;;;;;;;3.93;2.50;;;;;;;19.91;45.57;100639.25;5039176;28;20243;-74
2023/06/07 02:55:02;;;;;;;8.53;2.90;;;;;;;19.76;46.80;100641.31;5037853;28;20471;-75
2023/06/07 02:57:30;;;;;;;5.50;2.70;;;;;;;19.69;45.90;100635.91;5038081;28;20299;-75
2023/06/07 02:59:58;;;;;;;6.37;2.60;;;;;;;19.68;46.33;100638.81;5036061;28;20208;-74
2023/06/07 03:02:26;;;;;;;5.40;2.63;;;;;;;19.62;46.73;100645.81;5035606;28;20216;-74
2023/06/07 03:04:57;;;;;;;4.87;3.03;;;;;;;19.64;46.60;100640.22;5040099;28;20208;-75
2023/06/07 03:07:25;;;;;;;7.00;3.23;;;;;;;19.65;46.79;100640.03;5035373;28;20221;-74
2023/06/07 03:09:53;;;;;;;6.40;3.60;;;;;;;19.66;46.53;100644.38;5035386;28;20232;-74
2023/06/07 03:12:21;;;;;;;5.90;3.30;;;;;;;19.71;46.17;100644.59;5036089;28;20208;-74
2023/06/07 03:14:48;;;;;;;8.13;3.10;;;;;;;19.64;46.52;100638.38;5039540;28;20204;-74
2023/06/07 03:17:17;;;;;;;5.53;3.00;;;;;;;19.70;46.09;100640.25;5038580;28;20447;-63
2023/06/07 03:19:44;;;;;;;6.10;3.17;;;;;;;19.67;46.06;100643.34;5036654;28;20204;-65
2023/06/07 03:22:14;;;;;;;5.60;2.97;;;;;;;19.65;46.25;100645.41;5037790;28;20242;-66
2023/06/07 03:24:42;;;;;;;7.03;2.77;;;;;;;19.58;46.55;100644.56;5033996;28;20756;-64
2023/06/07 03:27:10;;;;;;;6.10;3.07;;;;;;;19.55;46.43;100653.03;5035280;28;20277;-62
2023/06/07 03:29:38;;;;;;;6.37;2.53;;;;;;;19.46;46.75;100651.53;5035760;28;20258;-64
2023/06/07 03:32:07;;;;;;;5.83;3.10;;;;;;;19.35;47.48;100657.50;5037811;28;20217;-64
2023/06/07 03:34:35;;;;;;;7.57;2.83;;;;;;;19.29;47.57;100664.50;5036547;28;20302;-64
2023/06/07 03:37:03;;;;;;;4.73;2.73;;;;;;;19.26;47.82;100658.69;5035651;28;20561;-65
2023/06/07 03:39:32;;;;;;;4.60;2.80;;;;;;;19.25;47.91;100660.56;5033578;28;20368;-64
2023/06/07 03:42:00;;;;;;;6.43;3.00;;;;;;;19.26;47.81;100664.06;5035300;28;20588;-67
2023/06/07 03:44:27;;;;;;;5.63;2.90;;;;;;;19.24;47.74;100666.97;5033523;28;20205;-64
2023/06/07 03:46:55;;;;;;;6.33;2.73;;;;;;;19.23;47.99;100667.16;5033235;28;20212;-65
2023/06/07 03:49:23;;;;;;;5.30;3.00;;;;;;;19.18;48.17;100671.25;5032922;28;20656;-66
2023/06/07 03:51:51;;;;;;;5.80;3.13;;;;;;;19.09;48.15;100671.63;5033605;28;20215;-63
2023/06/07 03:54:18;;;;;;;4.87;2.80;;;;;;;19.04;48.24;100677.59;5037186;28;20219;-63
2023/06/07 03:56:48;;;;;;;6.93;3.33;;;;;;;19.07;48.27;100674.53;5032555;28;20828;-65
2023/06/07 03:59:19;;;;;;;4.47;2.90;;;;;;;19.18;47.81;100676.63;5033608;28;20242;-64
2023/06/07 04:01:48;;;;;;;9.03;3.37;;;;;;;19.12;48.18;100672.06;5035576;28;20778;-62
2023/06/07 04:04:15;;;;;;;7.23;2.93;;;;;;;19.15;48.06;100671.66;5035956;28;20241;-64
2023/06/07 04:06:44;;;;;;;6.43;3.50;;;;;;;19.18;48.27;100681.19;5034453;28;20224;-64
2023/06/07 04:09:15;;;;;;;5.13;3.00;;;;;;;19.21;48.25;100674.59;5033702;28;20228;-63
2023/06/07 04:11:42;;;;;;;8.50;3.33;;;;;;;19.23;48.00;100672.53;5036912;28;20208;-62
2023/06/07 04:14:12;;;;;;;5.73;3.43;;;;;;;19.27;47.93;100671.09;5036343;28;21299;-64
2023/06/07 04:16:39;;;;;;;6.40;3.13;;;;;;;19.30;47.54;100666.16;5037649;28;20579;-74
2023/06/07 04:19:07;;;;;;;7.47;2.87;;;;;;;19.48;46.88;100662.94;5035046;28;20223;-74
2023/06/07 04:21:35;;;;;;;6.23;3.20;;;;;;;19.61;46.33;100665.69;5036633;28;20280;-74
2023/06/07 04:24:04;;;;;;;8.20;3.10;;;;;;;19.65;46.30;100669.63;5041578;28;20287;-74
2023/06/07 04:26:33;;;;;;;6.87;2.97;;;;;;;19.66;46.26;100663.22;5036150;28;20204;-76
2023/06/07 04:29:01;;;;;;;5.47;3.20;;;;;;;19.69;46.07;100660.13;5037904;28;20613;-74
2023/06/07 04:31:34;;;;;;;5.13;3.20;;;;;;;19.76;45.79;100666.34;5037752;28;20321;-74
2023/06/07 04:34:02;;;;;;;7.87;3.67;;;;;;;19.80;45.59;100670.28;5037964;28;20319;-74
2023/06/07 04:36:30;;;;;;;5.87;3.20;;;;;;;19.86;45.78;100668.66;5034358;28;20204;-74
2023/06/07 04:38:58;;;;;;;7.50;3.33;;;;;;;19.91;45.65;100667.00;5036454;28;20996;-74
2023/06/07 04:41:30;;;;;;;7.57;2.87;;;;;;;19.92;46.08;100662.44;5038121;28;20208;-74
2023/06/07 04:43:58;;;;;;;4.17;2.90;;;;;;;19.89;46.31;100663.66;5040099;28;20226;-74
2023/06/07 04:46:27;;;;;;;5.67;2.60;;;;;;;19.91;45.63;100667.00;5040525;28;20204;-74
2023/06/07 04:48:57;;;;;;;6.13;3.40;;;;;;;19.96;45.93;100666.41;5038446;28;20263;-73
2023/06/07 04:51:26;;;;;;;5.07;2.83;;;;;;;19.98;46.38;100666.16;5036510;28;20262;-74
2023/06/07 04:53:58;;;;;;;8.13;3.90;;;;;;;19.80;48.40;100664.91;5036332;28;20219;-73
2023/06/07 04:56:27;;;;;;;7.30;3.33;;;;;;;19.65;47.98;100666.94;5036618;28;20292;-74
2023/06/07 04:58:55;;;;;;;12.83;3.97;;;;;;;19.62;48.05;100666.50;5039002;28;20212;-75
2023/06/07 05:01:24;;;;;;;20.47;5.20;;;;;;;19.66;47.44;100665.06;5037345;28;20551;-74
2023/06/07 05:04:01;;;;;;;18.90;4.70;;;;;;;19.68;47.09;100666.53;5039136;28;20212;-75
2023/06/07 05:06:31;;;;;;;9.43;3.87;;;;;;;19.71;46.93;100668.81;5039237;28;20231;-75
2023/06/07 05:08:58;;;;;;;9.07;3.67;;;;;;;19.82;46.27;100676.28;5040094;28;20703;-74
2023/06/07 05:11:27;;;;;;;10.63;4.00;;;;;;;19.87;46.43;100676.53;5040351;28;20762;-75
2023/06/07 05:13:54;;;;;;;7.27;3.73;;;;;;;19.96;45.99;100681.72;5038855;28;20280;-74
2023/06/07 05:16:24;;;;;;;6.87;3.60;;;;;;;20.01;45.67;100676.53;5040098;28;20257;-73
2023/06/07 05:18:53;;;;;;;5.53;3.13;;;;;;;20.02;45.48;100676.34;5036449;28;20227;-75
2023/06/07 05:21:22;;;;;;;7.63;3.60;;;;;;;20.02;45.76;100680.88;5039368;28;20234;-75
2023/06/07 05:23:50;;;;;;;6.73;3.23;;;;;;;20.08;45.71;100688.13;5039578;28;20938;-74
2023/06/07 05:26:18;;;;;;;7.83;3.87;;;;;;;20.06;46.38;100682.97;5041126;28;20207;-76
2023/06/07 05:28:46;;;;;;;8.67;3.13;;;;;;;20.10;45.53;100675.31;5043564;28;20297;-75
2023/06/07 05:31:14;;;;;;;5.87;3.40;;;;;;;20.13;45.35;100680.31;5041506;28;20208;-74
2023/06/07 05:33:41;;;;;;;6.33;3.27;;;;;;;20.13;45.65;100670.38;5041428;28;20212;-73
2023/06/07 05:36:10;;;;;;;6.33;3.90;;;;;;;20.15;45.51;100688.97;5035784;28;20295;-73
2023/06/07 05:38:39;;;;;;;7.97;4.00;;;;;;;20.19;45.51;100679.47;5034184;28;20220;-74
2023/06/07 05:41:07;;;;;;;8.37;3.90;;;;;;;20.24;45.30;100671.59;5034089;28;20614;-75
2023/06/07 05:43:37;;;;;;;7.20;3.63;;;;;;;20.26;45.26;100673.03;5038471;28;20994;-74
2023/06/07 05:46:05;;;;;;;8.10;4.43;;;;;;;20.26;44.90;100672.22;5037192;28;21034;-75
2023/06/07 05:48:32;;;;;;;9.50;5.60;;;;;;;20.28;45.30;100675.53;5035187;28;20228;-75
2023/06/07 05:51:00;;;;;;;6.30;4.20;;;;;;;20.28;45.01;100676.38;5036160;28;20706;-75
2023/06/07 05:53:29;;;;;;;9.93;3.77;;;;;;;20.34;44.86;100677.44;5044021;28;20236;-73
2023/06/07 05:55:58;;;;;;;6.77;4.10;;;;;;;20.36;45.10;100674.53;5036026;28;20706;-73
2023/06/07 05:58:27;;;;;;;13.87;4.37;;;;;;;20.34;46.55;100668.50;5044189;28;20649;-74
2023/06/07 06:00:54;;;;;;;11.27;3.10;;;;;;;20.23;47.04;100673.44;5038513;28;20219;-74
2023/06/07 06:03:22;;;;;;;7.20;3.93;;;;;;;20.27;46.69;100674.72;5037835;28;20285;-73
2023/06/07 06:05:50;;;;;;;11.00;4.37;;;;;;;20.34;45.53;100677.44;5037218;28;20217;-75
2023/06/07 06:08:18;;;;;;;6.63;4.77;;;;;;;20.42;45.68;100677.22;5035411;28;20255;-73
2023/06/07 06:10:46;;;;;;;11.63;4.90;;;;;;;20.45;45.95;100684.06;5037593;28;20297;-74
2023/06/07 06:13:15;;;;;;;8.83;4.20;;;;;;;20.42;45.92;100685.31;5033165;28;20217;-75
2023/06/07 06:15:43;;;;;;;11.70;4.43;;;;;;;20.43;46.33;100678.88;5035313;28;20212;-74
2023/06/07 06:18:11;;;;;;;10.27;4.23;;;;;;;20.47;46.10;100680.13;5035626;28;20224;-75
2023/06/07 06:20:39;;;;;;;8.67;3.37;;;;;;;20.49;45.95;100674.56;5033550;28;20212;-73
2023/06/07 06:23:08;;;;;;;8.10;3.70;;;;;;;20.51;45.89;100670.59;5036971;28;20256;-75
2023/06/07 06:25:36;;;;;;;8.77;5.27;;;;;;;20.62;45.36;100678.06;5039555;28;20208;-75
2023/06/07 06:28:05;;;;;;;8.80;4.83;;;;;;;20.69;44.83;100674.50;5035101;28;20774;-75
2023/06/07 06:30:34;;;;;;;8.73;4.90;;;;;;;20.82;44.73;100674.50;5034445;28;20216;-73
2023/06/07 06:33:02;;;;;;;7.13;3.80;;;;;;;20.85;44.54;100674.06;5032916;28;20305;-75
2023/06/07 06:35:32;;;;;;;7.57;3.60;;;;;;;20.89;45.02;100678.00;5036835;28;20987;-74
2023/06/07 06:38:00;;;;;;;7.10;4.10;;;;;;;20.88;45.33;100679.06;5031474;28;20235;-75
2023/06/07 06:40:28;;;;;;;6.63;3.47;;;;;;;20.81;44.91;100689.03;5034133;28;20952;-74
2023/06/07 06:42:56;;;;;;;9.70;4.40;;;;;;;20.81;44.74;100683.63;5034448;28;20237;-74
2023/06/07 06:45:24;;;;;;;9.47;3.70;;;;;;;20.84;44.66;100684.06;5037603;28;20240;-74
2023/06/07 06:47:53;;;;;;;6.90;3.80;;;;;;;20.91;45.11;100681.34;5036029;28;20220;-74
2023/06/07 06:50:21;;;;;;;12.30;4.37;;;;;;;20.96;45.11;100679.66;5038859;28;20228;-76
2023/06/07 06:53:00;;;;;;;9.60;4.27;;;;;;;20.98;45.24;100685.66;5039535;28;20342;-74
2023/06/07 06:55:28;;;;;;;8.53;5.07;;;;;;;21.03;45.74;100690.41;5041218;28;20219;-74
2023/06/07 06:57:56;;;;;;;8.63;4.43;;;;;;;21.06;45.32;100694.56;5040187;28;20212;-75
2023/06/07 07:00:24;;;;;;;7.80;4.33;;;;;;;21.11;45.20;100695.56;5048056;28;20262;-74
2023/06/07 07:02:54;;;;;;;20.17;4.80;;;;;;;21.16;45.55;100686.88;5041092;28;20584;-74
2023/06/07 07:05:22;;;;;;;11.70;4.50;;;;;;;21.18;45.31;100696.44;5043377;28;20205;-74
2023/06/07 07:07:50;;;;;;;7.67;3.83;;;;;;;21.23;45.31;100688.53;5042117;28;20232;-70
2023/06/07 07:10:18;;;;;;;8.80;4.23;;;;;;;21.49;44.24;100695.69;5035778;28;20453;-64
2023/06/07 07:12:47;;;;;;;8.37;4.13;;;;;;;21.48;46.04;100690.50;5036830;28;20296;-64
2023/06/07 07:15:14;;;;;;;9.47;3.83;;;;;;;21.40;46.04;100695.09;5037254;28;20672;-63
2023/06/07 07:17:46;;;;;;;9.10;3.70;;;;;;;21.45;46.36;100702.59;5035744;28;20291;-63
2023/06/07 07:20:17;;;;;;;6.37;3.77;;;;;;;21.51;46.67;100706.28;5036948;28;20294;-62
2023/06/07 07:22:46;;;;;;;12.83;4.67;;;;;;;21.57;46.66;100703.53;5039925;28;20228;-64
2023/06/07 07:25:15;;;;;;;9.57;3.93;;;;;;;21.64;46.30;100703.50;5037406;28;20208;-66
2023/06/07 07:27:43;;;;;;;7.97;4.03;;;;;;;21.71;46.23;100702.47;5036103;28;20224;-63
2023/06/07 07:30:12;;;;;;;13.00;4.00;;;;;;;21.78;45.95;100700.56;5038153;28;20390;-63
2023/06/07 07:32:39;;;;;;;14.03;4.53;;;;;;;21.84;46.31;100706.13;5036799;28;20288;-64
2023/06/07 07:35:08;;;;;;;8.07;4.07;;;;;;;21.90;46.75;100702.56;5036465;28;20206;-65
2023/06/07 07:37:38;;;;;;;6.40;3.67;;;;;;;21.96;47.48;100694.44;5034173;28;20662;-63
2023/06/07 07:40:08;;;;;;;8.67;3.43;;;;;;;22.04;47.00;100696.91;5036751;28;20220;-64
2023/06/07 07:42:37;;;;;;;10.53;3.47;;;;;;;22.16;47.33;100690.81;5035416;28;21132;-66
2023/06/07 07:45:05;;;;;;;9.73;3.20;;;;;;;22.21;46.14;100693.66;5038047;28;20295;-64
2023/06/07 07:47:33;;;;;;;5.67;3.60;;;;;;;22.27;46.51;100700.88;5034183;28;20288;-66
2023/06/07 07:50:03;;;;;;;6.00;3.20;;;;;;;22.34;46.68;100697.09;5035797;28;20682;-64
2023/06/07 07:52:32;;;;;;;6.43;3.30;;;;;;;22.40;47.18;100695.41;5035561;28;20283;-65
2023/06/07 07:55:02;;;;;;;11.13;3.70;;;;;;;22.45;46.79;100696.38;5035104;28;20255;-64
2023/06/07 07:57:30;;;;;;;8.20;4.03;;;;;;;22.52;46.80;100696.31;5035655;28;20201;-63
2023/06/07 07:59:58;;;;;;;7.23;3.60;;;;;;;22.57;46.88;100691.09;5035811;28;20265;-64
2023/06/07 08:02:26;;;;;;;7.03;3.63;;;;;;;22.62;46.05;100688.53;5036707;28;20266;-64
2023/06/07 08:04:54;;;;;;;8.20;3.70;;;;;;;22.71;46.35;100687.22;5035425;28;20212;-63
2023/06/07 08:07:22;;;;;;;8.07;4.30;;;;;;;22.81;46.24;100695.69;5033425;28;20306;-64
2023/06/07 08:09:50;;;;;;;4.43;3.30;;;;;;;22.85;45.67;100688.78;5036636;28;20320;-63
2023/06/07 08:12:19;;;;;;;4.67;3.07;;;;;;;23.00;46.87;100687.59;5037134;28;20677;-63
2023/06/07 08:14:47;;;;;;;4.00;2.90;;;;;;;23.19;46.18;100689.25;5036020;28;20720;-65
2023/06/07 08:17:15;;;;;;;4.80;2.93;;;;;;;23.17;46.41;100685.94;5034814;28;20303;-63
2023/06/07 08:19:43;;;;;;;4.57;2.73;;;;;;;23.22;46.92;100678.81;5035999;28;20209;-66
2023/06/07 08:22:10;;;;;;;7.80;3.50;;;;;;;23.29;46.14;100678.75;5031944;28;20244;-65
2023/06/07 08:24:38;;;;;;;8.17;3.60;;;;;;;23.34;46.13;100684.28;5035310;28;20208;-65
2023/06/07 08:27:07;;;;;;;5.43;3.30;;;;;;;23.67;45.15;100681.19;5037112;28;20237;-64
2023/06/07 08:29:36;;;;;;;6.20;3.07;;;;;;;23.57;45.29;100670.91;5035342;28;20325;-64
2023/06/07 08:32:04;;;;;;;11.73;4.03;;;;;;;23.57;45.81;100679.03;5036264;28;20301;-64
2023/06/07 08:34:32;;;;;;;7.80;3.43;;;;;;;23.59;45.55;100678.81;5036974;28;20208;-64
2023/06/07 08:37:01;;;;;;;5.00;3.22;;;;;;;23.67;45.67;100677.66;5038211;28;20240;-64
2023/06/07 08:39:29;;;;;;;12.67;4.00;;;;;;;23.75;45.86;100680.88;5035020;28;20228;-65
2023/06/07 08:41:57;;;;;;;8.02;3.67;;;;;;;23.83;45.10;100682.47;5037397;28;20212;-64
2023/06/07 08:44:24;;;;;;;7.03;3.72;;;;;;;23.92;44.56;100683.78;5033275;28;21173;-64
2023/06/07 08:46:55;;;;;;;5.88;3.70;;;;;;;24.04;44.33;100678.38;5033047;28;20278;-64
2023/06/07 08:49:26;;;;;;;7.05;3.20;;;;;;;24.03;44.25;100685.69;5034293;28;20204;-64
2023/06/07 08:51:55;;;;;;;6.32;3.92;;;;;;;24.12;44.16;100683.47;5037099;28;20238;-64
2023/06/07 08:54:44;;;;;;;8.07;3.40;;;;;;;24.19;44.52;100678.75;5035940;28;20216;-63
2023/06/07 08:57:16;;;;;;;5.82;3.55;;;;;;;24.17;44.84;100687.16;5035178;28;20281;-64
2023/06/07 08:59:46;;;;;;;7.28;3.47;;;;;;;24.25;44.71;100689.56;5037670;28;20205;-65
2023/06/07 09:02:16;;;;;;;8.40;3.47;;;;;;;24.30;44.64;100692.38;5034690;28;20211;-65
2023/06/07 09:04:44;;;;;;;6.00;3.10;;;;;;;24.32;44.85;100690.28;5032674;28;20212;-65
2023/06/07 09:07:11;;;;;;;8.70;4.22;;;;;;;24.52;44.11;100678.28;5035250;28;20781;-65
2023/06/07 09:09:41;;;;;;;9.38;3.58;;;;;;;24.52;44.71;100687.25;5034831;28;20212;-64
2023/06/07 09:12:10;;;;;;;7.93;3.60;;;;;;;24.62;44.88;100678.53;5035391;28;20213;-63
2023/06/07 09:14:38;;;;;;;7.25;4.03;;;;;;;24.72;44.57;100678.75;5037177;28;20219;-63
2023/06/07 09:17:06;;;;;;;11.07;4.07;;;;;;;24.84;44.68;100689.59;5033041;28;20224;-63
2023/06/07 09:19:36;;;;;;;6.03;4.13;;;;;;;24.88;44.14;100688.91;5036946;28;20303;-63
2023/06/07 09:22:05;;;;;;;8.65;3.97;;;;;;;25.04;43.46;100681.97;5035710;28;20240;-64
2023/06/07 09:24:35;;;;;;;6.32;3.70;;;;;;;25.13;43.01;100685.13;5033978;28;20286;-64
2023/06/07 09:27:04;;;;;;;10.20;4.40;;;;;;;25.11;43.44;100677.22;5034405;28;20251;-66
2023/06/07 09:29:40;;;;;;;6.63;4.18;;;;;;;25.32;42.46;100682.03;5035621;28;20319;-63
2023/06/07 09:32:18;;;;;;;10.80;4.72;;;;;;;25.37;43.17;100675.88;5031207;28;20736;-65
2023/06/07 09:34:47;;;;;;;7.30;4.00;;;;;;;25.26;43.25;100677.53;5034701;28;20697;-65
2023/06/07 09:37:20;;;;;;;7.43;4.32;;;;;;;25.29;42.94;100679.78;5033600;28;20203;-65
2023/06/07 09:39:52;;;;;;;5.18;3.70;;;;;;;25.53;42.58;100679.72;5032794;28;20212;-63
2023/06/07 09:42:20;;;;;;;6.85;4.03;;;;;;;25.55;42.13;100677.59;5033892;28;20662;-63
2023/06/07 09:44:49;;;;;;;8.85;3.90;;;;;;;25.37;42.72;100681.28;5035041;28;20300;-62
2023/06/07 09:47:22;;;;;;;7.30;4.03;;;;;;;25.40;42.90;100678.09;5033204;28;20215;-62
2023/06/07 09:49:54;;;;;;;9.10;4.28;;;;;;;25.38;43.03;100677.53;5035387;28;20283;-64
2023/06/07 09:52:23;;;;;;;7.95;4.10;;;;;;;25.58;43.27;100685.25;5036837;28;20312;-63
2023/06/07 09:54:51;;;;;;;8.77;4.38;;;;;;;25.59;42.24;100674.19;5032997;28;20211;-64
2023/06/07 09:57:35;;;;;;;9.00;4.05;;;;;;;25.68;43.20;100667.28;5034286;28;20221;-64
2023/06/07 10:00:10;;;;;;;5.65;3.83;;;;;;;25.65;42.99;100678.66;5032975;28;20214;-63
2023/06/07 10:02:38;;;;;;;9.30;4.53;;;;;;;25.70;42.30;100669.75;5035926;28;20201;-63
2023/06/07 10:05:08;;;;;;;9.25;4.30;;;;;;;25.89;42.27;100667.66;5034812;28;20404;-64
2023/06/07 10:07:40;;;;;;;6.18;4.88;;;;;;;26.11;41.34;100661.28;5032671;28;20280;-65
2023/06/07 10:10:11;;;;;;;8.05;4.30;;;;;;;26.30;41.45;100659.16;5032979;28;20208;-63
2023/06/07 10:12:40;;;;;;;8.98;4.80;;;;;;;26.44;40.76;100651.53;5034031;28;20221;-64
2023/06/07 10:15:11;;;;;;;6.90;4.78;;;;;;;26.48;40.71;100656.19;5034997;28;20209;-63
2023/06/07 10:17:49;;;;;;;12.10;4.68;;;;;;;26.52;41.39;100654.66;5032329;28;20307;-64
2023/06/07 10:20:27;;;;;;;7.05;5.07;;;;;;;26.59;41.50;100657.19;5038498;28;20714;-63
2023/06/07 10:22:59;;;;;;;9.52;4.43;;;;;;;26.44;41.25;100657.78;5035206;28;20325;-65
2023/06/07 10:25:31;;;;;;;9.07;4.75;;;;;;;26.11;42.00;100653.16;5037274;28;20263;-63
2023/06/07 10:28:16;;;;;;;7.35;5.13;;;;;;;26.02;42.29;100653.78;5036346;28;20666;-64
2023/06/07 10:30:52;;;;;;;9.02;5.00;;;;;;;25.82;42.30;100656.97;5038845;28;21239;-64
2023/06/07 10:33:21;;;;;;;9.65;4.82;;;;;;;25.62;42.82;100654.69;5038541;28;20773;-64
2023/06/07 10:35:51;;;;;;;10.45;5.13;;;;;;;25.50;43.26;100653.88;5038447;28;20208;-64
2023/06/07 10:38:19;;;;;;;8.32;4.72;;;;;;;25.45;42.87;100656.47;5037489;28;20202;-66
2023/06/07 10:40:47;;;;;;;7.43;4.88;;;;;;;25.35;42.52;100653.56;5038734;28;20570;-65
2023/06/07 10:43:15;;;;;;;8.18;5.43;;;;;;;25.21;43.30;100649.47;5037251;28;20267;-63
2023/06/07 10:45:43;;;;;;;12.00;4.93;;;;;;;25.37;42.97;100656.88;5036451;28;20240;-64
2023/06/07 10:48:33;;;;;;;7.35;5.00;;;;;;;25.63;42.87;100650.06;5037469;28;20200;-64
2023/06/07 10:51:03;;;;;;;7.40;4.88;;;;;;;25.79;42.71;100652.81;5036925;28;20242;-64
2023/06/07 10:53:53;;;;;;;9.85;4.65;;;;;;;25.88;42.03;100639.69;5036902;28;20430;-64
2023/06/07 10:56:30;;;;;;;7.13;4.43;;;;;;;26.05;41.80;100642.41;5038974;28;20212;-64
2023/06/07 10:59:19;;;;;;;6.88;4.38;;;;;;;26.12;42.55;100638.47;5035961;28;20211;-64
2023/06/07 11:01:49;;;;;;;11.07;4.10;;;;;;;26.18;42.16;100629.34;5038868;28;20217;-65
2023/06/07 11:04:59;;;;;;;4.53;3.75;;;;;;;26.27;41.51;100639.84;5037285;28;20695;-65
2023/06/07 11:07:31;;;;;;;4.93;3.80;;;;;;;26.37;41.58;100638.09;5022345;28;21060;-64
2023/06/07 11:10:34;;;;;;;4.50;3.58;;;;;;;26.48;41.06;100628.19;5037477;28;20581;-65
2023/06/07 11:13:03;;;;;;;6.60;3.80;;;;;;;26.53;40.77;100631.00;5039159;28;20259;-63
2023/06/07 11:15:35;;;;;;;10.05;3.95;;;;;;;26.59;40.49;100630.00;5036753;28;20663;-62
2023/06/07 11:18:07;;;;;;;4.35;3.60;;;;;;;26.83;40.63;100625.97;5036552;28;20208;-64
2023/06/07 11:20:51;;;;;;;3.72;3.25;;;;;;;26.92;39.54;100623.69;5033676;28;21052;-64
2023/06/07 11:23:26;;;;;;;5.30;3.35;;;;;;;26.99;39.55;100623.50;5037184;28;20212;-65
2023/06/07 11:25:56;;;;;;;3.90;2.72;;;;;;;26.70;39.82;100630.97;5034432;28;20255;-64
2023/06/07 11:28:27;;;;;;;3.63;2.33;;;;;;;26.56;39.76;100620.44;5037828;28;20275;-65
2023/06/07 11:30:56;;;;;;;3.95;2.50;;;;;;;26.47;40.06;100610.25;5033733;28;20209;-65
2023/06/07 11:33:24;;;;;;;3.17;2.40;;;;;;;26.55;40.31;100607.94;5038138;28;20295;-65
2023/06/07 11:35:52;;;;;;;4.78;2.60;;;;;;;26.73;39.84;100612.25;5035726;28;20659;-62